createdAt,value
2023-04-23T00:02:00.435Z,64.26
2023-04-23T00:04:48.803Z,63.86
2023-04-23T00:07:36.229Z,64.25
2023-04-23T00:10:24.244Z,63.90
2023-04-23T00:13:11.304Z,63.90
2023-04-23T00:15:58.944Z,63.69
2023-04-23T00:18:45.935Z,63.95
2023-04-23T00:21:33.427Z,63.89
2023-04-23T00:24:20.484Z,63.79
2023-04-23T00:27:07.525Z,63.86
2023-04-23T00:29:54.586Z,63.58
2023-04-23T00:32:41.717Z,63.38
2023-04-23T00:35:28.630Z,63.58
2023-04-23T00:38:15.732Z,63.41
2023-04-23T00:41:02.719Z,63.70
2023-04-23T00:43:50.063Z,63.83
2023-04-23T00:46:37.719Z,63.53
2023-04-23T00:49:24.930Z,63.68
2023-04-23T00:52:12.081Z,63.08
2023-04-23T00:54:59.049Z,63.70
2023-04-23T00:57:46.530Z,63.27
2023-04-23T01:00:34.113Z,63.17
2023-04-23T01:03:21.089Z,63.11
2023-04-23T01:06:08.468Z,62.85
2023-04-23T01:08:55.468Z,63.27
2023-04-23T01:11:42.595Z,63.18
2023-04-23T01:14:30.347Z,63.33
2023-04-23T01:17:17.607Z,63.06
2023-04-23T01:20:04.884Z,63.14
2023-04-23T01:22:53.194Z,62.60
2023-04-23T01:25:40.252Z,63.13
2023-04-23T01:28:27.892Z,62.79
2023-04-23T01:31:16.037Z,62.91
2023-04-23T01:34:04.460Z,62.83
2023-04-23T01:36:51.795Z,62.88
2023-04-23T01:39:38.831Z,62.80
2023-04-23T01:42:26.480Z,62.74
2023-04-23T01:45:14.544Z,62.78
2023-04-23T01:48:01.756Z,62.78
2023-04-23T01:50:49.841Z,62.62
2023-04-23T01:53:36.940Z,62.44
2023-04-23T01:56:24.085Z,62.82
2023-04-23T01:59:11.134Z,63.14
2023-04-23T02:02:05.172Z,62.92
2023-04-23T02:04:54.253Z,62.67
2023-04-23T02:07:41.255Z,62.39
2023-04-23T02:10:28.879Z,62.59
2023-04-23T02:13:17.183Z,62.41
2023-04-23T02:16:04.130Z,62.42
2023-04-23T02:18:51.172Z,62.33
2023-04-23T02:21:38.185Z,62.37
2023-04-23T02:24:25.477Z,62.36
2023-04-23T02:27:12.405Z,62.22
2023-04-23T02:30:00.256Z,62.33
2023-04-23T02:32:47.336Z,62.42
2023-04-23T02:35:34.298Z,62.10
2023-04-23T02:38:21.231Z,62.02
2023-04-23T02:41:10.834Z,61.87
2023-04-23T02:43:57.770Z,62.05
2023-04-23T02:46:45.113Z,62.33
2023-04-23T02:49:32.116Z,62.01
2023-04-23T02:52:19.113Z,61.89
2023-04-23T02:55:06.061Z,61.99
2023-04-23T02:57:53.291Z,62.55
2023-04-23T03:00:40.724Z,62.09
2023-04-23T03:03:27.774Z,61.70
2023-04-23T03:06:14.801Z,61.81
2023-04-23T03:09:01.666Z,61.89
2023-04-23T03:11:48.805Z,61.79
2023-04-23T03:14:36.097Z,61.77
2023-04-23T03:17:23.073Z,61.51
2023-04-23T03:20:10.294Z,61.70
2023-04-23T03:22:58.160Z,61.52
2023-04-23T03:25:45.464Z,61.43
2023-04-23T03:28:32.608Z,61.79
2023-04-23T03:31:19.724Z,61.44
2023-04-23T03:34:06.621Z,61.38
2023-04-23T03:36:55.422Z,61.46
2023-04-23T03:39:42.575Z,61.34
2023-04-23T03:42:31.213Z,61.41
2023-04-23T03:45:18.328Z,61.68
2023-04-23T03:48:05.451Z,61.47
2023-04-23T03:50:52.912Z,61.75
2023-04-23T03:53:57.117Z,61.33
2023-04-23T03:57:02.769Z,61.08
2023-04-23T03:59:54.805Z,61.42
2023-04-23T04:02:42.005Z,61.08
2023-04-23T04:05:29.842Z,61.45
2023-04-23T04:08:16.756Z,61.10
2023-04-23T04:11:03.758Z,61.20
2023-04-23T04:13:50.582Z,61.02
2023-04-23T04:16:37.689Z,61.06
2023-04-23T04:19:24.562Z,61.36
2023-04-23T04:22:11.602Z,61.05
2023-04-23T04:24:58.530Z,60.95
2023-04-23T04:27:45.451Z,61.27
2023-04-23T04:30:32.567Z,61.43
2023-04-23T04:33:19.635Z,61.39
2023-04-23T04:36:06.921Z,60.72
2023-04-23T04:38:53.899Z,60.97
2023-04-23T04:41:41.114Z,60.77
2023-04-23T04:44:31.287Z,60.79
2023-04-23T04:47:18.190Z,60.63
2023-04-23T04:50:05.503Z,61.37
2023-04-23T04:52:52.455Z,60.65
2023-04-23T04:55:39.715Z,60.90
2023-04-23T04:58:26.715Z,60.54
2023-04-23T05:01:13.891Z,60.76
2023-04-23T05:04:01.163Z,61.08
2023-04-23T05:06:48.353Z,60.64
2023-04-23T05:09:35.305Z,60.49
2023-04-23T05:12:22.523Z,60.69
2023-04-23T05:15:09.652Z,60.60
2023-04-23T05:17:57.667Z,60.24
2023-04-23T05:20:44.645Z,60.79
2023-04-23T05:23:31.622Z,60.70
2023-04-23T05:26:18.746Z,60.45
2023-04-23T05:29:05.709Z,60.42
2023-04-23T05:31:52.618Z,60.71
2023-04-23T05:34:40.002Z,60.84
2023-04-23T05:37:27.073Z,59.93
2023-04-23T05:40:14.105Z,60.57
2023-04-23T05:43:01.080Z,60.44
2023-04-23T05:45:48.741Z,60.03
2023-04-23T05:48:35.708Z,59.65
2023-04-23T05:51:22.781Z,60.08
2023-04-23T05:54:09.799Z,59.79
2023-04-23T05:56:56.735Z,59.13
2023-04-23T05:59:43.608Z,59.09
2023-04-23T06:02:31.065Z,59.54
2023-04-23T06:05:18.302Z,58.70
2023-04-23T06:08:05.325Z,59.30
2023-04-23T06:10:52.322Z,59.35
2023-04-23T06:13:40.114Z,59.35
2023-04-23T06:16:29.116Z,59.11
2023-04-23T06:19:16.995Z,58.46
2023-04-23T06:22:03.901Z,58.40
2023-04-23T06:24:50.765Z,57.86
2023-04-23T06:27:37.756Z,58.38
2023-04-23T06:30:31.747Z,57.52
2023-04-23T06:33:19.156Z,58.14
2023-04-23T06:36:06.217Z,57.54
2023-04-23T06:38:53.209Z,57.60
2023-04-23T06:41:40.540Z,57.56
2023-04-23T06:44:33.953Z,56.63
2023-04-23T06:47:21.053Z,58.07
2023-04-23T06:50:07.926Z,57.70
2023-04-23T06:52:55.504Z,56.39
2023-04-23T06:55:42.472Z,56.70
2023-04-23T06:58:29.597Z,56.37
2023-04-23T07:01:17.068Z,55.64
2023-04-23T07:04:04.175Z,56.00
2023-04-23T07:06:51.033Z,54.97
2023-04-23T07:09:38.224Z,55.94
2023-04-23T07:12:25.305Z,55.40
2023-04-23T07:15:12.212Z,55.54
2023-04-23T07:17:59.165Z,54.08
2023-04-23T07:20:46.130Z,54.34
2023-04-23T07:23:33.181Z,53.93
2023-04-23T07:26:20.174Z,54.15
2023-04-23T07:29:07.171Z,52.75
2023-04-23T07:31:54.312Z,52.95
2023-04-23T07:34:41.653Z,52.27
2023-04-23T07:37:28.706Z,53.44
2023-04-23T07:40:15.608Z,51.54
2023-04-23T07:43:02.625Z,51.33
2023-04-23T07:45:49.541Z,52.49
2023-04-23T07:48:36.561Z,51.31
2023-04-23T07:51:23.669Z,50.84
2023-04-23T07:54:10.603Z,51.68
2023-04-23T07:56:57.780Z,50.50
2023-04-23T07:59:44.915Z,50.09
2023-04-23T08:02:31.998Z,49.62
2023-04-23T08:05:19.172Z,50.40
2023-04-23T08:08:06.148Z,48.93
2023-04-23T08:10:53.217Z,49.98
2023-04-23T08:13:40.168Z,49.18
2023-04-23T08:16:27.123Z,48.21
2023-04-23T08:19:14.083Z,47.97
2023-04-23T08:22:01.021Z,48.70
2023-04-23T08:24:47.921Z,47.64
2023-04-23T08:27:34.787Z,48.67
2023-04-23T08:30:21.859Z,47.74
2023-04-23T08:33:10.872Z,47.36
2023-04-23T08:35:57.778Z,47.07
2023-04-23T08:38:45.173Z,47.46
2023-04-23T08:41:38.295Z,47.55
2023-04-23T08:44:25.221Z,47.52
2023-04-23T08:47:14.600Z,46.88
2023-04-23T08:50:02.088Z,46.19
2023-04-23T08:52:54.472Z,46.48
2023-04-23T08:55:42.750Z,46.80
2023-04-23T08:58:29.972Z,45.89
2023-04-23T09:01:18.749Z,46.68
2023-04-23T09:04:07.102Z,45.84
2023-04-23T09:06:54.598Z,46.08
2023-04-23T09:09:43.785Z,45.32
2023-04-23T09:12:30.864Z,45.15
2023-04-23T09:15:17.893Z,44.82
2023-04-23T09:18:06.770Z,45.18
2023-04-23T09:20:53.819Z,45.11
2023-04-23T09:23:43.218Z,44.66
2023-04-23T09:26:30.284Z,44.21
2023-04-23T09:29:17.213Z,44.17
2023-04-23T09:32:06.992Z,43.73
2023-04-23T09:34:56.061Z,44.47
2023-04-23T09:37:46.497Z,44.56
2023-04-23T09:40:34.541Z,40.93
2023-04-23T09:43:24.025Z,40.15
2023-04-23T09:46:10.962Z,41.77
2023-04-23T09:49:04.118Z,41.93
2023-04-23T09:51:51.517Z,43.00
2023-04-23T09:54:44.748Z,43.03
2023-04-23T09:57:32.029Z,43.24
2023-04-23T10:00:19.390Z,43.27
2023-04-23T10:03:08.616Z,42.94
2023-04-23T10:06:02.566Z,42.35
2023-04-23T10:08:51.790Z,42.59
2023-04-23T10:11:38.842Z,42.39
2023-04-23T10:14:26.265Z,42.08
2023-04-23T10:17:23.793Z,42.19
2023-04-23T10:20:12.185Z,42.39
2023-04-23T10:23:01.070Z,42.81
2023-04-23T10:25:48.555Z,41.60
2023-04-23T10:28:39.483Z,41.78
2023-04-23T10:31:26.839Z,41.85
2023-04-23T10:34:16.449Z,41.78
2023-04-23T10:37:03.629Z,42.35
2023-04-23T10:39:53.269Z,41.94
2023-04-23T10:42:40.844Z,41.58
2023-04-23T10:45:34.875Z,38.66
2023-04-23T10:48:21.784Z,39.28
2023-04-23T10:52:05.831Z,40.13
2023-04-23T10:54:25.399Z,40.46
2023-04-23T10:57:19.723Z,40.13
2023-04-23T11:00:14.778Z,40.58
2023-04-23T11:03:05.072Z,41.02
2023-04-23T11:05:55.241Z,40.22
2023-04-23T11:08:42.308Z,40.67
2023-04-23T11:11:29.395Z,40.44
2023-04-23T11:14:16.466Z,40.68
2023-04-23T11:17:03.368Z,40.50
2023-04-23T11:19:50.696Z,40.25
2023-04-23T11:22:37.599Z,39.69
2023-04-23T11:25:28.672Z,39.97
2023-04-23T11:28:16.974Z,39.71
2023-04-23T11:31:03.952Z,40.55
2023-04-23T11:33:51.051Z,40.49
2023-04-23T11:36:38.152Z,40.13
2023-04-23T11:39:25.081Z,40.42
2023-04-23T11:42:12.066Z,40.34
2023-04-23T11:45:03.141Z,40.28
2023-04-23T11:47:50.324Z,40.07
2023-04-23T11:50:38.981Z,40.40
2023-04-23T11:53:28.329Z,40.23
2023-04-23T11:56:15.285Z,40.44
2023-04-23T11:59:02.383Z,40.57
2023-04-23T12:02:13.174Z,40.38
2023-04-23T12:05:00.361Z,40.56
2023-04-23T12:07:53.121Z,41.17
2023-04-23T12:10:41.569Z,39.96
2023-04-23T12:13:41.451Z,40.97
2023-04-23T12:16:28.454Z,41.02
2023-04-23T12:19:15.352Z,40.89
2023-04-23T12:22:16.707Z,40.49
2023-04-23T12:25:08.914Z,39.94
2023-04-23T12:28:04.283Z,40.79
2023-04-23T12:30:52.968Z,40.51
2023-04-23T12:33:40.925Z,40.90
2023-04-23T12:36:31.927Z,41.09
2023-04-23T12:39:40.919Z,40.83
2023-04-23T12:42:28.362Z,39.80
2023-04-23T12:45:18.049Z,41.09
2023-04-23T12:48:05.014Z,40.63
2023-04-23T12:50:52.196Z,40.72
2023-04-23T12:53:39.116Z,41.03
2023-04-23T12:56:26.184Z,40.70
2023-04-23T12:59:13.223Z,40.44
2023-04-23T13:02:00.293Z,41.14
2023-04-23T13:04:47.568Z,40.96
2023-04-23T13:07:34.706Z,41.39
2023-04-23T13:10:21.598Z,41.61
2023-04-23T13:13:08.480Z,40.96
2023-04-23T13:15:55.493Z,41.92
2023-04-23T13:18:42.491Z,41.37
2023-04-23T13:21:30.495Z,42.86
2023-04-23T13:24:17.429Z,42.03
2023-04-23T13:27:04.407Z,42.62
2023-04-23T13:29:51.324Z,43.70
2023-04-23T13:32:38.306Z,43.84
2023-04-23T13:35:25.608Z,44.45
2023-04-23T13:38:12.551Z,44.40
2023-04-23T13:40:59.420Z,44.83
2023-04-23T13:43:46.383Z,44.75
2023-04-23T13:46:33.313Z,44.68
2023-04-23T13:49:20.410Z,45.09
2023-04-23T13:52:07.387Z,45.46
2023-04-23T13:54:54.648Z,45.11
2023-04-23T13:57:41.572Z,45.49
2023-04-23T14:00:29.025Z,45.82
2023-04-23T14:03:16.159Z,46.60
2023-04-23T14:06:03.213Z,46.87
2023-04-23T14:08:50.308Z,46.90
2023-04-23T14:11:37.461Z,46.50
2023-04-23T14:14:24.374Z,47.63
2023-04-23T14:17:11.247Z,48.58
2023-04-23T14:19:58.243Z,48.67
2023-04-23T14:22:45.236Z,49.05
2023-04-23T14:25:43.688Z,49.10
2023-04-23T14:28:59.659Z,49.55
2023-04-23T14:31:46.607Z,49.17
2023-04-23T14:34:33.491Z,49.84
2023-04-23T14:37:20.630Z,49.87
2023-04-23T14:40:07.705Z,51.57
2023-04-23T14:42:56.941Z,51.43
2023-04-23T14:45:46.412Z,51.76
2023-04-23T14:48:33.417Z,52.29
2023-04-23T14:51:20.266Z,52.60
2023-04-23T14:54:07.143Z,53.47
2023-04-23T14:56:54.143Z,54.20
2023-04-23T14:59:41.770Z,54.86
2023-04-23T15:02:29.211Z,54.84
2023-04-23T15:05:17.017Z,55.67
2023-04-23T15:08:03.992Z,55.89
2023-04-23T15:10:51.020Z,56.29
